Time;durP1;ratioP1;P1;durP2;ratioP2;P2;SDS_P1;SDS_P2;PMS_P1;PMS_P2;Temp;Humidity;BMP_temperature;BMP_pressure;BME280_temperature;BME280_humidity;BME280_pressure;Samples;Min_cycle;Max_cycle;Signal;HPM_P1;HPM_P2
2022/03/25 00:00:49;;;;;;;30.00;24.17;;;15.90;58.40;;;;;;5098681;28;20060;-70
2022/03/25 00:03:15;;;;;;;29.33;23.75;;;15.90;58.40;;;;;;5097743;28;20063;-70
2022/03/25 00:05:41;;;;;;;28.88;23.67;;;15.90;58.40;;;;;;5080537;28;20051;-70
2022/03/25 00:08:08;;;;;;;28.40;23.92;;;15.80;58.30;;;;;;5098368;28;20343;-70
2022/03/25 00:10:33;;;;;;;29.98;23.98;;;15.80;58.30;;;;;;5097979;28;20112;-70
2022/03/25 00:12:59;;;;;;;28.95;23.80;;;15.80;58.30;;;;;;5097785;28;20481;-70
2022/03/25 00:15:26;;;;;;;29.50;24.35;;;15.80;58.30;;;;;;5097863;28;20044;-70
2022/03/25 00:17:52;;;;;;;31.75;24.95;;;15.70;58.30;;;;;;5097896;28;20055;-70
2022/03/25 00:20:17;;;;;;;29.02;24.25;;;15.70;58.30;;;;;;5097936;28;20047;-70
2022/03/25 00:22:43;;;;;;;30.90;25.17;;;15.70;58.30;;;;;;5097707;28;20048;-70
2022/03/25 00:25:10;;;;;;;31.20;25.67;;;15.60;58.30;;;;;;5098265;28;20427;-70
2022/03/25 00:27:36;;;;;;;34.75;26.33;;;15.60;58.40;;;;;;5079700;28;20105;-70
2022/03/25 00:30:03;;;;;;;33.50;25.85;;;15.60;58.50;;;;;;5097854;28;20048;-70
2022/03/25 00:32:29;;;;;;;34.78;26.98;;;15.50;58.40;;;;;;5097404;28;20051;-70
2022/03/25 00:34:55;;;;;;;32.42;26.92;;;15.50;58.50;;;;;;5097538;28;20044;-70
2022/03/25 00:37:21;;;;;;;36.88;27.45;;;15.40;58.40;;;;;;5097452;28;20051;-70
2022/03/25 00:39:46;;;;;;;36.75;27.98;;;15.40;58.40;;;;;;5097182;28;20489;-70
2022/03/25 00:42:13;;;;;;;34.08;27.10;;;15.40;58.50;;;;;;5097601;28;20099;-70
2022/03/25 00:44:40;;;;;;;35.50;28.65;;;15.40;58.50;;;;;;5097471;28;20060;-70
2022/03/25 00:47:06;;;;;;;37.42;29.60;;;15.40;58.60;;;;;;5097132;28;20081;-70
2022/03/25 00:49:32;;;;;;;38.20;29.85;;;15.30;58.50;;;;;;5062566;28;20056;-71
2022/03/25 00:51:58;;;;;;;38.33;30.17;;;15.30;58.50;;;;;;5097800;28;20048;-70
2022/03/25 00:54:24;;;;;;;37.53;29.77;;;15.30;58.50;;;;;;5097361;28;20044;-70
2022/03/25 00:56:50;;;;;;;38.22;30.48;;;15.30;58.50;;;;;;5097115;28;20130;-70
2022/03/25 00:59:17;;;;;;;39.15;29.20;;;15.30;58.50;;;;;;5097029;28;20132;-71
2022/03/25 01:01:42;;;;;;;38.78;30.55;;;15.20;58.40;;;;;;5096132;28;20056;-70
2022/03/25 01:04:08;;;;;;;41.00;31.48;;;15.20;58.40;;;;;;5079388;28;20066;-70
2022/03/25 01:06:35;;;;;;;36.80;30.45;;;15.20;58.30;;;;;;5097030;28;20066;-70
2022/03/25 01:09:02;;;;;;;38.58;30.92;;;15.20;58.30;;;;;;5096591;28;20046;-70
2022/03/25 01:11:28;;;;;;;39.70;30.83;;;15.20;58.40;;;;;;5097026;28;20083;-70
2022/03/25 01:13:53;;;;;;;40.55;31.23;;;15.10;58.30;;;;;;5096652;28;20086;-70
2022/03/25 01:16:19;;;;;;;38.20;30.95;;;15.10;58.30;;;;;;5096550;28;20059;-70
2022/03/25 01:18:45;;;;;;;40.70;30.45;;;15.00;58.30;;;;;;5096649;28;20140;-70
2022/03/25 01:21:11;;;;;;;36.88;29.98;;;15.00;58.40;;;;;;5096870;28;20039;-70
2022/03/25 01:23:36;;;;;;;37.25;29.67;;;14.90;58.50;;;;;;5096651;28;20455;-70
2022/03/25 01:26:03;;;;;;;38.75;29.35;;;14.90;58.60;;;;;;5096225;28;20058;-70
2022/03/25 01:28:34;;;;;;;39.38;30.88;;;14.90;58.70;;;;;;5096775;28;20090;-70
2022/03/25 01:31:03;;;;;;;39.65;30.80;;;14.90;58.70;;;;;;5096126;28;20051;-70
2022/03/25 01:33:30;;;;;;;37.40;29.15;;;14.90;58.70;;;;;;5096749;28;20044;-70
2022/03/25 01:35:56;;;;;;;38.08;29.13;;;14.90;58.80;;;;;;5096218;28;20367;-70
2022/03/25 01:38:23;;;;;;;36.47;29.27;;;14.90;58.70;;;;;;5096076;28;20043;-70
2022/03/25 01:40:49;;;;;;;37.33;29.17;;;14.90;58.80;;;;;;5096130;28;20052;-70
2022/03/25 01:43:14;;;;;;;38.25;29.60;;;14.90;58.80;;;;;;5096258;28;20066;-70
2022/03/25 01:45:40;;;;;;;39.28;29.40;;;14.90;58.80;;;;;;5096593;28;20059;-70
2022/03/25 01:48:11;;;;;;;37.90;30.33;;;14.80;58.70;;;;;;5095016;28;20125;-69
2022/03/25 01:50:43;;;;;;;35.75;27.83;;;14.80;58.70;;;;;;5096215;28;20051;-70
2022/03/25 01:53:14;;;;;;;40.17;29.90;;;14.80;58.70;;;;;;5096458;28;20451;-70
2022/03/25 01:55:50;;;;;;;36.60;28.15;;;14.80;58.90;;;;;;5075210;28;20123;-70
2022/03/25 01:58:17;;;;;;;37.28;26.95;;;14.80;58.70;;;;;;5058975;28;20117;-70
2022/03/25 02:00:43;;;;;;;37.97;28.73;;;14.70;58.70;;;;;;5075731;28;20106;-70
2022/03/25 02:03:08;;;;;;;36.42;28.65;;;14.70;58.70;;;;;;5092845;28;20052;-70
2022/03/25 02:05:35;;;;;;;35.10;27.15;;;14.70;58.60;;;;;;5096245;28;20466;-69
2022/03/25 02:08:02;;;;;;;32.78;27.15;;;14.70;58.60;;;;;;5096103;28;20359;-71
2022/03/25 02:10:28;;;;;;;35.08;26.75;;;14.70;58.60;;;;;;5095734;28;20059;-70
2022/03/25 02:12:53;;;;;;;34.30;27.50;;;14.70;58.60;;;;;;5095523;28;20055;-70
2022/03/25 02:15:34;;;;;;;33.22;26.23;;;14.70;58.70;;;;;;5095824;28;20039;-70
2022/03/25 02:18:05;;;;;;;34.15;27.85;;;14.70;58.70;;;;;;5096073;28;20134;-70
2022/03/25 02:20:32;;;;;;;37.78;28.23;;;14.60;58.60;;;;;;5095374;28;20043;-70
2022/03/25 02:22:58;;;;;;;35.22;25.75;;;14.60;58.60;;;;;;5095716;28;20036;-69
2022/03/25 02:25:29;;;;;;;32.67;27.30;;;14.60;58.60;;;;;;5095260;28;20036;-69
2022/03/25 02:28:00;;;;;;;33.90;26.30;;;14.60;58.60;;;;;;5095017;28;20036;-69
2022/03/25 02:30:27;;;;;;;33.60;27.33;;;14.60;58.60;;;;;;5095473;28;20044;-70
2022/03/25 02:33:00;;;;;;;32.20;26.52;;;14.50;58.50;;;;;;5095171;28;20045;-70
2022/03/25 02:35:40;;;;;;;33.30;26.40;;;14.60;58.60;;;;;;5095288;28;20050;-70
2022/03/25 02:38:07;;;;;;;34.83;26.35;;;14.50;58.50;;;;;;5095488;28;20075;-70
2022/03/25 02:40:32;;;;;;;35.08;26.73;;;14.50;58.50;;;;;;5095363;28;20048;-69
2022/03/25 02:42:59;;;;;;;33.60;26.48;;;14.50;58.50;;;;;;5095083;28;20059;-70
2022/03/25 02:45:24;;;;;;;35.08;26.67;;;14.50;58.60;;;;;;5095699;28;20340;-70
2022/03/25 02:47:50;;;;;;;32.53;26.23;;;14.50;58.50;;;;;;5094461;28;20063;-70
2022/03/25 02:50:16;;;;;;;34.85;26.75;;;14.50;58.50;;;;;;5095274;28;20052;-70
2022/03/25 02:52:42;;;;;;;34.95;28.55;;;14.50;58.50;;;;;;5095249;28;20367;-69
2022/03/25 02:55:09;;;;;;;36.30;28.23;;;14.50;58.40;;;;;;5095370;28;20164;-71
2022/03/25 02:57:37;;;;;;;35.50;27.30;;;14.50;58.40;;;;;;5094685;28;20058;-70
2022/03/25 03:00:08;;;;;;;37.70;27.35;;;14.50;58.30;;;;;;5096270;28;20079;-70
2022/03/25 03:02:35;;;;;;;36.47;26.90;;;14.50;58.30;;;;;;5099141;28;20052;-69
2022/03/25 03:05:01;;;;;;;35.85;26.95;;;14.40;58.20;;;;;;5099609;28;20106;-70
2022/03/25 03:07:27;;;;;;;36.45;27.80;;;14.40;58.20;;;;;;5099412;28;20044;-70
2022/03/25 03:09:52;;;;;;;36.47;28.60;;;14.40;58.80;;;;;;5099300;28;20087;-70
2022/03/25 03:12:18;;;;;;;35.20;27.73;;;14.40;58.20;;;;;;5099426;28;20044;-70
2022/03/25 03:14:44;;;;;;;38.15;28.90;;;14.40;58.30;;;;;;5099619;28;20439;-70
2022/03/25 03:17:11;;;;;;;35.70;27.95;;;14.40;58.40;;;;;;5098920;28;20121;-70
2022/03/25 03:19:36;;;;;;;37.00;28.35;;;14.30;58.40;;;;;;5099256;28;20134;-70
2022/03/25 03:22:03;;;;;;;37.72;27.63;;;14.30;58.30;;;;;;5099096;28;20077;-70
2022/03/25 03:24:29;;;;;;;39.72;28.48;;;14.30;58.40;;;;;;5098492;28;20087;-70
2022/03/25 03:26:55;;;;;;;37.03;28.42;;;14.30;58.50;;;;;;5098669;28;20040;-69
2022/03/25 03:29:20;;;;;;;38.83;28.45;;;14.30;58.50;;;;;;5099007;28;20044;-70
2022/03/25 03:31:47;;;;;;;37.30;28.13;;;14.30;58.50;;;;;;5098851;28;20060;-69
2022/03/25 03:34:12;;;;;;;36.28;27.83;;;14.30;58.50;;;;;;5098733;28;20098;-70
2022/03/25 03:36:38;;;;;;;36.20;27.77;;;14.20;58.50;;;;;;5098746;28;20160;-69
2022/03/25 03:39:05;;;;;;;36.88;28.45;;;14.30;58.50;;;;;;5099238;28;20048;-69
2022/03/25 03:41:30;;;;;;;34.60;27.73;;;14.20;58.40;;;;;;5098149;28;20433;-70
2022/03/25 03:43:56;;;;;;;40.15;29.42;;;14.20;58.30;;;;;;5098669;28;20051;-70
2022/03/25 03:46:22;;;;;;;38.13;29.30;;;14.20;58.30;;;;;;5099164;28;20051;-69
2022/03/25 03:48:49;;;;;;;39.72;29.30;;;14.20;58.30;;;;;;5098084;28;20064;-70
2022/03/25 03:51:15;;;;;;;37.38;28.60;;;14.20;58.30;;;;;;5097885;28;20052;-70
2022/03/25 03:53:41;;;;;;;39.40;30.08;;;14.20;58.40;;;;;;5098219;28;20047;-69
2022/03/25 03:56:07;;;;;;;39.47;28.73;;;14.20;58.30;;;;;;5098415;28;20055;-69
2022/03/25 03:58:32;;;;;;;33.08;26.75;;;14.10;58.30;;;;;;5098061;28;20051;-70
2022/03/25 04:00:58;;;;;;;36.65;27.77;;;14.10;58.30;;;;;;5098009;28;20044;-69
2022/03/25 04:03:24;;;;;;;38.05;29.02;;;14.10;58.30;;;;;;5098318;28;20110;-70
2022/03/25 04:05:49;;;;;;;37.72;28.77;;;14.10;58.30;;;;;;5080647;28;20455;-70
2022/03/25 04:08:15;;;;;;;40.25;30.10;;;14.10;58.30;;;;;;5098230;28;20048;-70
2022/03/25 04:10:41;;;;;;;39.05;29.50;;;14.00;58.10;;;;;;5097913;28;20074;-69
2022/03/25 04:13:07;;;;;;;40.95;30.00;;;14.10;58.30;;;;;;5097975;28;20559;-69
2022/03/25 04:15:34;;;;;;;39.50;29.05;;;14.00;58.30;;;;;;5097882;28;20101;-69
2022/03/25 04:18:00;;;;;;;38.83;29.17;;;14.00;58.40;;;;;;5097888;28;20051;-70
2022/03/25 04:20:26;;;;;;;40.85;30.48;;;14.00;58.40;;;;;;5097916;28;20039;-70
2022/03/25 04:22:52;;;;;;;38.88;29.73;;;14.00;58.50;;;;;;5097637;28;20040;-70
2022/03/25 04:25:18;;;;;;;40.22;28.95;;;14.00;58.30;;;;;;5097458;28;20135;-70
2022/03/25 04:27:50;;;;;;;37.83;28.42;;;14.00;58.20;;;;;;5097917;28;20059;-70
2022/03/25 04:30:20;;;;;;;39.03;29.17;;;14.00;58.20;;;;;;5097997;28;20051;-70
2022/03/25 04:32:46;;;;;;;39.55;29.58;;;14.00;58.10;;;;;;5097218;28;20078;-69
2022/03/25 04:35:12;;;;;;;37.25;29.02;;;14.00;58.00;;;;;;5098274;28;20131;-69
2022/03/25 04:37:38;;;;;;;40.25;29.88;;;13.90;57.70;;;;;;5097391;28;20051;-69
2022/03/25 04:40:04;;;;;;;37.90;28.58;;;13.90;57.70;;;;;;5097874;28;20048;-70
2022/03/25 04:42:30;;;;;;;38.75;28.83;;;13.90;57.70;;;;;;5097922;28;20054;-70
2022/03/25 04:44:56;;;;;;;41.47;30.45;;;13.90;57.90;;;;;;5097828;28;20047;-69
2022/03/25 04:47:22;;;;;;;39.00;28.60;;;13.80;57.90;;;;;;5079604;28;20337;-70
2022/03/25 04:49:48;;;;;;;37.75;29.67;;;13.80;58.00;;;;;;5097006;28;20131;-70
2022/03/25 04:52:15;;;;;;;40.03;29.50;;;13.80;58.00;;;;;;5079031;28;20106;-69
2022/03/25 04:54:40;;;;;;;40.53;29.27;;;13.70;57.80;;;;;;5079433;28;20056;-70
2022/03/25 04:57:06;;;;;;;41.92;29.92;;;13.70;57.80;;;;;;5097123;28;20048;-69
2022/03/25 04:59:32;;;;;;;41.35;30.38;;;13.70;57.60;;;;;;5097165;28;20052;-70
2022/03/25 05:01:57;;;;;;;37.25;28.23;;;13.60;57.70;;;;;;5096782;28;20044;-69
2022/03/25 05:04:23;;;;;;;40.97;29.45;;;13.70;58.00;;;;;;5097153;28;20060;-69
2022/03/25 05:06:49;;;;;;;39.63;29.88;;;13.60;58.00;;;;;;5096963;28;20052;-70
2022/03/25 05:09:15;;;;;;;40.15;31.15;;;13.60;58.10;;;;;;5096736;28;20122;-70
2022/03/25 05:11:41;;;;;;;39.70;30.20;;;13.50;58.00;;;;;;5096836;28;20056;-70
2022/03/25 05:14:06;;;;;;;41.08;30.73;;;13.50;58.80;;;;;;5097285;28;20509;-70
2022/03/25 05:16:32;;;;;;;38.88;29.45;;;13.50;58.10;;;;;;5096665;28;20362;-70
2022/03/25 05:18:58;;;;;;;43.47;31.83;;;13.50;58.20;;;;;;5096990;28;20074;-69
2022/03/25 05:21:23;;;;;;;43.75;30.83;;;13.50;58.30;;;;;;5096741;28;20351;-69
2022/03/25 05:23:49;;;;;;;42.60;28.65;;;13.50;58.30;;;;;;5095720;28;20055;-74
2022/03/25 05:26:15;;;;;;;44.53;31.48;;;13.50;58.80;;;;;;5096110;28;20048;-75
2022/03/25 05:28:41;;;;;;;44.00;32.72;;;13.50;58.70;;;;;;5091235;28;20036;-74
2022/03/25 05:31:07;;;;;;;42.47;30.95;;;13.60;58.10;;;;;;5088367;28;20481;-73
2022/03/25 05:33:33;;;;;;;43.40;32.38;;;13.60;57.10;;;;;;5092081;28;20048;-75
2022/03/25 05:35:58;;;;;;;45.42;33.00;;;13.70;56.50;;;;;;5087835;28;20059;-77
2022/03/25 05:38:24;;;;;;;49.25;34.10;;;13.70;56.00;;;;;;5067705;28;20040;-73
2022/03/25 05:40:50;;;;;;;47.42;32.97;;;13.70;55.40;;;;;;5094446;28;20040;-71
2022/03/25 05:43:16;;;;;;;45.88;34.13;;;13.80;55.10;;;;;;5095667;28;20036;-77
2022/03/25 05:45:42;;;;;;;50.50;35.63;;;13.80;54.80;;;;;;5078389;28;20130;-78
2022/03/25 05:48:07;;;;;;;47.60;35.22;;;13.80;53.60;;;;;;5090741;28;20057;-68
2022/03/25 05:50:34;;;;;;;51.38;35.67;;;13.70;53.60;;;;;;5087073;28;20060;-71
2022/03/25 05:53:00;;;;;;;48.08;33.63;;;13.60;54.20;;;;;;5068529;28;20116;-72
2022/03/25 05:55:26;;;;;;;48.40;34.90;;;13.60;55.70;;;;;;5095828;28;20366;-72
2022/03/25 05:57:51;;;;;;;43.25;32.88;;;13.70;58.20;;;;;;5096560;28;20097;-73
2022/03/25 06:00:17;;;;;;;44.47;31.08;;;13.70;59.30;;;;;;5095861;28;20455;-73
2022/03/25 06:02:43;;;;;;;44.75;31.60;;;13.80;57.70;;;;;;5095185;28;20079;-71
2022/03/25 06:05:10;;;;;;;36.88;27.92;;;14.00;58.00;;;;;;5095515;28;20055;-75
2022/03/25 06:07:38;;;;;;;37.90;27.20;;;14.10;57.40;;;;;;5073594;28;20050;-73
2022/03/25 06:10:07;;;;;;;35.17;25.05;;;14.40;57.60;;;;;;5070935;28;20486;-72
2022/03/25 06:12:33;;;;;;;32.40;23.38;;;14.60;57.60;;;;;;5095505;28;20040;-73
2022/03/25 06:14:59;;;;;;;32.63;22.92;;;14.80;57.60;;;;;;5060737;28;20062;-72
2022/03/25 06:17:26;;;;;;;27.77;21.52;;;15.00;57.60;;;;;;5077394;28;20059;-73
2022/03/25 06:19:52;;;;;;;34.50;21.73;;;15.20;57.90;;;;;;5095207;28;20084;-72
2022/03/25 06:22:18;;;;;;;29.67;21.27;;;15.30;58.30;;;;;;5095503;28;20059;-72
2022/03/25 06:24:44;;;;;;;32.25;20.25;;;15.50;58.80;;;;;;5095495;28;20046;-71
2022/03/25 06:27:10;;;;;;;26.77;19.98;;;15.50;59.30;;;;;;5095005;28;20044;-67
2022/03/25 06:29:37;;;;;;;24.90;18.52;;;15.60;59.70;;;;;;5095430;28;20106;-70
2022/03/25 06:32:05;;;;;;;28.13;18.50;;;15.60;59.90;;;;;;5095168;28;20096;-72
2022/03/25 06:34:31;;;;;;;29.67;19.35;;;15.60;60.10;;;;;;5095003;28;20043;-72
2022/03/25 06:36:57;;;;;;;24.20;16.65;;;15.60;60.10;;;;;;5094899;28;20043;-72
2022/03/25 06:39:23;;;;;;;25.90;17.38;;;15.70;60.30;;;;;;5077729;28;20356;-73
2022/03/25 06:41:48;;;;;;;23.80;16.25;;;15.70;60.70;;;;;;5095132;28;20039;-72
2022/03/25 06:44:14;;;;;;;25.00;16.13;;;15.70;60.90;;;;;;5094892;28;20047;-71
2022/03/25 06:46:40;;;;;;;26.92;15.27;;;15.80;61.10;;;;;;5094949;28;20131;-73
2022/03/25 06:49:06;;;;;;;22.05;16.08;;;15.80;61.00;;;;;;5093981;28;20063;-72
2022/03/25 06:51:32;;;;;;;24.30;16.38;;;15.80;60.90;;;;;;5071072;28;20060;-71
2022/03/25 06:53:58;;;;;;;27.10;15.00;;;15.90;61.30;;;;;;5075492;28;20333;-72
2022/03/25 06:56:24;;;;;;;27.20;16.17;;;15.90;61.10;;;;;;5090368;28;20347;-72
2022/03/25 06:58:50;;;;;;;25.17;15.57;;;16.00;62.90;;;;;;5077621;28;20052;-73
2022/03/25 07:01:16;;;;;;;25.45;15.50;;;15.80;60.10;;;;;;5091432;28;20062;-72
2022/03/25 07:03:42;;;;;;;23.60;13.88;;;15.80;60.30;;;;;;5076499;28;20039;-72
2022/03/25 07:06:09;;;;;;;21.52;14.43;;;16.00;61.00;;;;;;5077234;28;20457;-73
2022/03/25 07:08:36;;;;;;;21.60;13.63;;;16.10;60.90;;;;;;5094411;28;20047;-76
2022/03/25 07:11:04;;;;;;;23.70;14.15;;;16.20;60.70;;;;;;5095221;28;20395;-73
2022/03/25 07:13:30;;;;;;;20.98;13.77;;;16.30;60.30;;;;;;5091937;28;20051;-72
2022/03/25 07:15:56;;;;;;;21.80;13.93;;;16.40;60.30;;;;;;5073678;28;20053;-73
2022/03/25 07:18:21;;;;;;;24.13;12.32;;;16.40;60.00;;;;;;5060164;28;20094;-73
2022/03/25 07:20:47;;;;;;;24.77;13.07;;;16.50;59.80;;;;;;5077081;28;20048;-73
2022/03/25 07:23:13;;;;;;;18.02;12.10;;;16.50;59.60;;;;;;5077779;28;20386;-73
2022/03/25 07:25:39;;;;;;;22.85;12.63;;;16.50;59.50;;;;;;5077125;28;20055;-74
2022/03/25 07:28:05;;;;;;;19.45;11.98;;;16.50;59.30;;;;;;5060112;28;20110;-72
2022/03/25 07:30:30;;;;;;;19.63;12.27;;;16.50;59.30;;;;;;5094744;28;20079;-72
2022/03/25 07:32:57;;;;;;;17.75;11.48;;;16.50;59.20;;;;;;5094075;28;20098;-73
2022/03/25 07:35:23;;;;;;;18.00;12.40;;;16.50;59.10;;;;;;5094511;28;20075;-72
2022/03/25 07:37:49;;;;;;;17.27;11.30;;;16.50;59.00;;;;;;5094279;28;20098;-73
2022/03/25 07:40:15;;;;;;;13.70;11.00;;;16.50;59.00;;;;;;5091352;28;20354;-73
2022/03/25 07:42:43;;;;;;;18.13;11.50;;;16.50;59.00;;;;;;5076591;28;20120;-71
2022/03/25 07:45:10;;;;;;;17.38;11.70;;;16.50;59.10;;;;;;5093382;28;20048;-71
2022/03/25 07:47:43;;;;;;;14.82;10.85;;;16.50;59.10;;;;;;5096980;28;20129;-71
2022/03/25 07:50:10;;;;;;;15.67;10.37;;;16.50;59.10;;;;;;5080019;28;20455;-71
2022/03/25 07:52:37;;;;;;;14.25;10.23;;;16.50;59.10;;;;;;5076754;28;20447;-73
2022/03/25 07:55:03;;;;;;;17.50;10.13;;;16.50;59.20;;;;;;5092689;28;20044;-71
2022/03/25 07:57:29;;;;;;;15.02;9.80;;;16.50;59.20;;;;;;5097708;28;20142;-71
2022/03/25 07:59:55;;;;;;;12.63;9.98;;;16.50;59.20;;;;;;5098353;28;20483;-73
2022/03/25 08:02:20;;;;;;;17.27;10.10;;;16.50;59.20;;;;;;5097498;28;20048;-71
2022/03/25 08:04:46;;;;;;;15.20;9.85;;;16.50;59.20;;;;;;5095123;28;20044;-72
2022/03/25 08:07:12;;;;;;;12.85;9.00;;;16.50;59.20;;;;;;5072352;28;20127;-71
2022/03/25 08:09:38;;;;;;;13.30;9.35;;;16.50;59.10;;;;;;5097986;28;20058;-72
2022/03/25 08:12:05;;;;;;;12.13;9.27;;;16.60;59.20;;;;;;5076288;28;20074;-72
2022/03/25 08:14:31;;;;;;;16.52;9.77;;;16.50;59.10;;;;;;5077494;28;20091;-71
2022/03/25 08:16:56;;;;;;;21.77;9.23;;;16.60;59.20;;;;;;5094838;28;20463;-76
2022/03/25 08:19:22;;;;;;;13.07;9.50;;;16.50;59.10;;;;;;5097567;28;20044;-75
2022/03/25 08:21:48;;;;;;;18.88;13.43;;;16.60;59.10;;;;;;5097753;28;20131;-74
2022/03/25 08:29:42;;;;;;;;;;;16.60;56.80;;;;;;5098078;28;20055;-71
2022/03/25 08:32:08;;;;;;;24.35;17.23;;;16.50;56.40;;;;;;5080157;28;20331;-72
2022/03/25 08:34:34;;;;;;;23.90;16.85;;;16.50;56.70;;;;;;5097556;28;20343;-71
2022/03/25 08:36:59;;;;;;;21.13;15.40;;;16.50;56.80;;;;;;5062643;28;20150;-71
2022/03/25 08:39:25;;;;;;;22.83;16.90;;;16.50;57.10;;;;;;5079828;28;20375;-70
2022/03/25 08:41:51;;;;;;;23.05;16.80;;;16.40;57.30;;;;;;5097211;28;20044;-72
2022/03/25 08:44:16;;;;;;;22.52;15.85;;;16.40;57.50;;;;;;5097705;28;20051;-70
2022/03/25 08:46:42;;;;;;;19.65;14.82;;;16.40;57.90;;;;;;5097010;28;20439;-71
2022/03/25 08:49:10;;;;;;;23.17;15.82;;;16.40;58.10;;;;;;5079472;28;20056;-71
2022/03/25 08:51:36;;;;;;;19.70;13.93;;;16.40;58.40;;;;;;5097269;28;20052;-71
2022/03/25 08:54:02;;;;;;;19.75;14.57;;;16.30;58.60;;;;;;5076153;28;20044;-72
2022/03/25 08:56:28;;;;;;;18.13;13.88;;;16.30;58.70;;;;;;5096953;28;20048;-71
2022/03/25 08:58:58;;;;;;;18.17;13.68;;;16.30;59.60;;;;;;5097000;28;20052;-71
2022/03/25 09:01:24;;;;;;;19.00;13.82;;;16.30;59.10;;;;;;5097513;28;20062;-71
2022/03/25 09:03:50;;;;;;;19.25;13.68;;;16.30;59.20;;;;;;5097066;28;20044;-72
2022/03/25 09:06:17;;;;;;;17.98;13.20;;;16.30;59.40;;;;;;5097328;28;20114;-72
2022/03/25 09:08:43;;;;;;;16.98;13.10;;;16.30;59.40;;;;;;5097530;28;20119;-71
2022/03/25 09:11:11;;;;;;;15.80;12.65;;;16.30;59.60;;;;;;5096903;28;20147;-71
2022/03/25 09:13:37;;;;;;;16.10;12.57;;;16.30;59.70;;;;;;5097599;28;20122;-71
2022/03/25 09:16:03;;;;;;;18.73;13.20;;;16.30;59.70;;;;;;5096352;28;20032;-71
2022/03/25 09:18:29;;;;;;;16.08;12.48;;;16.30;59.70;;;;;;5096601;28;20489;-71
2022/03/25 09:20:55;;;;;;;13.13;11.10;;;16.30;59.70;;;;;;5078871;28;20047;-72
2022/03/25 09:23:20;;;;;;;14.70;11.20;;;16.30;59.70;;;;;;5097272;28;20436;-71
2022/03/25 09:25:46;;;;;;;15.05;11.45;;;16.30;59.50;;;;;;5097081;28;20338;-71
2022/03/25 09:28:12;;;;;;;13.13;11.00;;;16.30;60.10;;;;;;5096139;28;20044;-72
2022/03/25 09:30:39;;;;;;;14.73;10.85;;;16.30;59.40;;;;;;5096507;28;20051;-71
2022/03/25 09:33:07;;;;;;;13.63;11.02;;;16.30;59.30;;;;;;5096233;28;20537;-72
2022/03/25 09:35:34;;;;;;;13.23;10.10;;;16.30;59.30;;;;;;5062219;28;20093;-72
2022/03/25 09:38:00;;;;;;;13.55;9.98;;;16.30;59.30;;;;;;5097066;28;20165;-72
2022/03/25 09:40:26;;;;;;;12.75;10.27;;;16.30;59.30;;;;;;5096595;28;20505;-71
2022/03/25 09:42:58;;;;;;;12.07;10.07;;;16.30;59.10;;;;;;5096278;28;20127;-71
2022/03/25 09:45:25;;;;;;;16.60;9.75;;;16.30;59.10;;;;;;5096163;28;20347;-71
2022/03/25 09:47:51;;;;;;;11.02;9.02;;;16.30;59.10;;;;;;5095256;28;20056;-71
2022/03/25 09:50:23;;;;;;;12.35;9.52;;;16.30;59.10;;;;;;5096256;28;20360;-72
2022/03/25 09:52:50;;;;;;;13.95;9.75;;;16.30;59.10;;;;;;5095896;28;20482;-71
2022/03/25 09:55:18;;;;;;;10.93;9.30;;;16.30;59.10;;;;;;5078920;28;20414;-72
2022/03/25 09:57:44;;;;;;;12.35;9.10;;;16.30;59.00;;;;;;5078397;28;20059;-70
2022/03/25 10:00:17;;;;;;;12.77;9.32;;;16.30;59.00;;;;;;5096035;28;20098;-72
2022/03/25 10:02:44;;;;;;;11.38;8.68;;;16.30;59.10;;;;;;5095641;28;20040;-71
2022/03/25 10:05:17;;;;;;;11.23;8.80;;;16.30;59.20;;;;;;5096178;28;20062;-71
2022/03/25 10:07:50;;;;;;;11.80;8.73;;;16.30;59.10;;;;;;5093027;28;20087;-72
2022/03/25 10:10:21;;;;;;;10.23;8.25;;;16.40;59.10;;;;;;5095444;28;20130;-71
2022/03/25 10:13:00;;;;;;;10.38;8.30;;;16.30;59.10;;;;;;5095677;28;20036;-71
2022/03/25 10:15:28;;;;;;;10.65;8.45;;;16.30;59.20;;;;;;5096351;28;20336;-72
2022/03/25 10:18:05;;;;;;;11.50;8.90;;;16.20;59.10;;;;;;5095140;28;20469;-72
2022/03/25 10:20:32;;;;;;;8.68;7.50;;;16.30;59.20;;;;;;5077110;28;20119;-71
2022/03/25 10:22:59;;;;;;;9.75;8.27;;;16.30;59.20;;;;;;5095505;28;20040;-72
2022/03/25 10:25:36;;;;;;;10.20;7.70;;;16.30;59.10;;;;;;5060481;28;20055;-71
2022/03/25 10:28:04;;;;;;;8.25;7.07;;;16.30;59.10;;;;;;5074845;28;20048;-71
2022/03/25 10:30:51;;;;;;;9.63;7.40;;;16.20;59.10;;;;;;5074939;28;20099;-71
2022/03/25 10:33:42;;;;;;;10.57;8.18;;;16.30;59.20;;;;;;5075018;28;20122;-71
2022/03/25 10:36:08;;;;;;;11.95;8.55;;;16.30;59.20;;;;;;5091804;28;20051;-74
2022/03/25 10:38:47;;;;;;;11.38;8.80;;;16.30;59.10;;;;;;5095093;28;20101;-77
2022/03/25 10:41:21;;;;;;;13.23;8.80;;;16.30;58.60;;;;;;5077112;28;20119;-70
2022/03/25 10:44:04;;;;;;;12.15;9.25;;;16.20;57.80;;;;;;5077580;28;20451;-77
2022/03/25 10:46:31;;;;;;;15.10;11.02;;;16.20;57.40;;;;;;5095555;28;20052;-76
2022/03/25 10:48:57;;;;;;;15.35;11.27;;;16.10;56.90;;;;;;5094883;28;20451;-73
2022/03/25 10:51:22;;;;;;;17.02;11.50;;;16.10;56.10;;;;;;5077716;28;20083;-73
2022/03/25 10:54:03;;;;;;;16.27;11.75;;;16.10;55.00;;;;;;5095058;28;20048;-72
2022/03/25 10:56:40;;;;;;;18.02;11.75;;;16.10;54.30;;;;;;5095395;28;20078;-73
2022/03/25 10:59:23;;;;;;;16.58;12.35;;;16.00;53.90;;;;;;5095002;28;20048;-72
2022/03/25 11:01:52;;;;;;;18.85;13.48;;;16.10;53.80;;;;;;5094870;28;20052;-75
2022/03/25 11:04:18;;;;;;;18.20;11.82;;;16.00;53.10;;;;;;5095126;28;20097;-75
2022/03/25 11:06:46;;;;;;;16.88;12.55;;;16.00;52.80;;;;;;5095104;28;20047;-71
2022/03/25 11:09:13;;;;;;;16.52;13.02;;;15.90;52.60;;;;;;5095158;28;20052;-73
2022/03/25 11:11:42;;;;;;;20.02;13.45;;;16.00;52.40;;;;;;5094053;28;20040;-74
2022/03/25 11:14:08;;;;;;;20.08;13.38;;;16.00;52.00;;;;;;5094641;28;20048;-74
2022/03/25 11:16:39;;;;;;;20.27;14.02;;;15.90;51.70;;;;;;5077197;28;20080;-73
2022/03/25 11:19:12;;;;;;;21.58;13.85;;;15.90;51.50;;;;;;5094430;28;20051;-73
2022/03/25 11:21:46;;;;;;;19.27;14.18;;;15.90;50.80;;;;;;5096363;28;20044;-74
2022/03/25 11:24:36;;;;;;;20.20;15.00;;;15.90;50.70;;;;;;5098793;28;20355;-75
2022/03/25 11:27:29;;;;;;;23.02;15.75;;;15.80;48.70;;;;;;5080851;28;20172;-76
2022/03/25 11:30:00;;;;;;;21.25;14.18;;;15.80;49.30;;;;;;5098685;28;20040;-75
2022/03/25 11:32:26;;;;;;;19.23;13.93;;;15.80;49.60;;;;;;5080894;28;20062;-75
2022/03/25 11:34:57;;;;;;;20.63;13.63;;;15.80;49.40;;;;;;5098765;28;20052;-72
2022/03/25 11:37:26;;;;;;;18.98;13.30;;;15.80;50.40;;;;;;5098466;28;20089;-71
2022/03/25 11:40:18;;;;;;;22.42;14.60;;;15.80;50.00;;;;;;5098611;28;20123;-71
2022/03/25 11:42:46;;;;;;;21.80;14.65;;;15.80;50.20;;;;;;5098532;28;20083;-72
2022/03/25 11:45:24;;;;;;;22.63;14.75;;;15.80;49.10;;;;;;5098669;28;20399;-71
2022/03/25 11:47:59;;;;;;;21.70;14.07;;;15.90;48.60;;;;;;5098204;28;20064;-72
2022/03/25 11:50:26;;;;;;;20.20;13.93;;;15.90;48.20;;;;;;5099040;28;20135;-72
2022/03/25 11:52:52;;;;;;;18.60;13.65;;;15.90;48.00;;;;;;5098414;28;20428;-71
2022/03/25 11:55:18;;;;;;;19.35;14.13;;;15.90;48.40;;;;;;5098512;28;20131;-71
2022/03/25 11:57:44;;;;;;;21.20;13.40;;;15.90;48.50;;;;;;5098065;28;20119;-72
2022/03/25 12:00:25;;;;;;;21.85;14.80;;;15.80;48.20;;;;;;5094994;28;20040;-71
2022/03/25 12:03:04;;;;;;;20.00;13.98;;;15.90;48.60;;;;;;5097317;28;20129;-72
2022/03/25 12:05:30;;;;;;;23.02;13.90;;;15.90;49.10;;;;;;5076929;28;20064;-72
2022/03/25 12:08:25;;;;;;;20.67;12.32;;;15.80;48.90;;;;;;5078530;28;20044;-71
2022/03/25 12:10:52;;;;;;;21.40;12.93;;;15.80;50.40;;;;;;5053255;28;20116;-72
2022/03/25 12:13:18;;;;;;;19.45;13.15;;;15.80;50.20;;;;;;5098292;28;20037;-71
2022/03/25 12:15:52;;;;;;;18.33;12.73;;;15.80;50.70;;;;;;5097278;28;20364;-72
2022/03/25 12:18:46;;;;;;;17.42;11.25;;;15.80;51.00;;;;;;5079404;28;20462;-71
2022/03/25 12:21:26;;;;;;;19.33;12.07;;;15.80;51.70;;;;;;5097959;28;20074;-71
2022/03/25 12:24:00;;;;;;;17.33;12.05;;;15.80;51.90;;;;;;5098214;28;20063;-72
2022/03/25 12:26:32;;;;;;;24.50;12.73;;;15.80;52.00;;;;;;5097546;28;20451;-72
2022/03/25 12:28:59;;;;;;;16.67;10.70;;;15.80;52.50;;;;;;5093998;28;20493;-71
2022/03/25 12:31:26;;;;;;;15.55;10.57;;;15.80;52.70;;;;;;5096801;28;20282;-71
2022/03/25 12:34:02;;;;;;;16.95;11.30;;;15.80;52.90;;;;;;5097164;28;20101;-69
2022/03/25 12:36:43;;;;;;;14.70;10.68;;;15.80;53.40;;;;;;5079842;28;20086;-70